createdAt,value
2023-02-17T00:01:42.560Z,19.90
2023-02-17T00:04:11.477Z,19.80
2023-02-17T00:06:40.661Z,19.80
2023-02-17T00:09:09.605Z,19.80
2023-02-17T00:11:38.552Z,19.90
2023-02-17T00:14:07.780Z,19.80
2023-02-17T00:16:36.709Z,19.90
2023-02-17T00:19:25.257Z,19.90
2023-02-17T00:21:57.017Z,20.00
2023-02-17T00:24:28.054Z,20.00
2023-02-17T00:26:57.527Z,20.10
2023-02-17T00:29:27.329Z,20.20
2023-02-17T00:31:57.018Z,20.20
2023-02-17T00:34:26.396Z,20.40
2023-02-17T00:36:55.548Z,20.40
2023-02-17T00:39:24.565Z,20.50
2023-02-17T00:41:53.499Z,20.60
2023-02-17T00:44:25.064Z,20.60
2023-02-17T00:46:54.272Z,20.60
2023-02-17T00:49:28.385Z,20.70
2023-02-17T00:52:00.561Z,20.80
2023-02-17T00:54:30.621Z,20.80
2023-02-17T00:56:59.530Z,20.90
2023-02-17T00:59:28.469Z,21.00
2023-02-17T01:01:57.423Z,21.10
2023-02-17T01:04:26.468Z,21.10
2023-02-17T01:06:55.500Z,21.20
2023-02-17T01:09:24.480Z,21.30
2023-02-17T01:11:53.406Z,21.30
2023-02-17T01:14:22.363Z,21.30
2023-02-17T01:16:51.678Z,21.40
2023-02-17T01:19:21.691Z,21.50
2023-02-17T01:21:51.007Z,21.50
2023-02-17T01:24:19.975Z,21.60
2023-02-17T01:26:48.893Z,21.70
2023-02-17T01:29:18.922Z,21.80
2023-02-17T01:31:48.022Z,21.80
2023-02-17T01:34:16.972Z,21.90
2023-02-17T01:36:45.873Z,21.90
2023-02-17T01:39:18.467Z,22.00
2023-02-17T01:41:47.355Z,22.00
2023-02-17T01:44:21.773Z,22.10
2023-02-17T01:46:53.120Z,22.20
2023-02-17T01:49:33.540Z,22.30
2023-02-17T01:52:18.447Z,22.40
2023-02-17T01:55:03.774Z,22.60
2023-02-17T01:57:35.977Z,22.80
2023-02-17T02:00:07.107Z,23.00
2023-02-17T02:02:36.557Z,23.10
2023-02-17T02:05:06.025Z,23.30
2023-02-17T02:07:40.087Z,23.50
2023-02-17T02:10:10.556Z,23.70
2023-02-17T02:12:42.244Z,23.90
2023-02-17T02:15:21.335Z,24.20
2023-02-17T02:18:02.428Z,24.30
2023-02-17T02:20:43.450Z,24.50
2023-02-17T02:23:18.437Z,24.60
2023-02-17T02:26:05.984Z,24.90
2023-02-17T02:29:22.496Z,25.10
2023-02-17T02:32:24.913Z,25.30
2023-02-17T02:35:09.477Z,25.50
2023-02-17T02:37:47.260Z,25.50
2023-02-17T02:40:21.254Z,25.60
2023-02-17T02:42:50.204Z,25.70
2023-02-17T02:45:20.467Z,25.60
2023-02-17T02:47:54.747Z,25.60
2023-02-17T02:50:51.114Z,25.70
2023-02-17T02:53:44.538Z,25.70
2023-02-17T02:56:29.444Z,25.60
2023-02-17T02:59:09.760Z,25.70
2023-02-17T03:01:54.479Z,25.70
2023-02-17T03:04:27.668Z,25.80
2023-02-17T03:07:03.135Z,25.90
2023-02-17T03:09:32.310Z,25.80
2023-02-17T03:12:01.286Z,25.90
2023-02-17T03:14:36.994Z,26.00
2023-02-17T03:17:06.067Z,26.10
2023-02-17T03:19:35.120Z,26.10
2023-02-17T03:22:16.558Z,26.30
2023-02-17T03:24:45.649Z,26.40
2023-02-17T03:27:14.650Z,26.60
2023-02-17T03:29:43.567Z,26.70
2023-02-17T03:32:12.803Z,26.70
2023-02-17T03:34:41.766Z,26.60
2023-02-17T03:37:10.820Z,26.70
2023-02-17T03:39:39.728Z,26.80
2023-02-17T03:42:08.917Z,27.00
2023-02-17T03:44:37.855Z,27.10
2023-02-17T03:47:06.834Z,27.10
2023-02-17T03:49:35.935Z,27.20
2023-02-17T03:52:04.973Z,27.20
2023-02-17T03:54:33.992Z,27.20
2023-02-17T03:57:02.941Z,27.20
2023-02-17T03:59:32.314Z,27.20
2023-02-17T04:02:01.258Z,27.30
2023-02-17T04:04:30.231Z,27.30
2023-02-17T04:06:59.115Z,27.50
2023-02-17T04:09:28.060Z,27.60
2023-02-17T04:11:56.965Z,27.70
2023-02-17T04:14:25.894Z,27.80
2023-02-17T04:16:54.762Z,27.90
2023-02-17T04:19:23.632Z,27.80
2023-02-17T04:21:52.564Z,27.70
2023-02-17T04:24:22.226Z,27.60
2023-02-17T04:26:51.178Z,27.40
2023-02-17T04:29:20.069Z,27.40
2023-02-17T04:31:49.030Z,27.40
2023-02-17T04:34:18.010Z,27.40
2023-02-17T04:36:46.910Z,27.50
2023-02-17T04:39:16.167Z,27.40
2023-02-17T04:41:45.073Z,27.40
2023-02-17T04:44:16.634Z,27.40
2023-02-17T04:46:45.517Z,27.40
2023-02-17T04:49:14.512Z,27.50
2023-02-17T04:51:43.401Z,27.50
2023-02-17T04:54:12.288Z,27.50
2023-02-17T04:56:41.307Z,27.60
2023-02-17T04:59:10.421Z,27.70
2023-02-17T05:01:39.358Z,27.70
2023-02-17T05:04:08.268Z,27.90
2023-02-17T05:06:37.209Z,28.10
2023-02-17T05:09:06.306Z,28.20
2023-02-17T05:11:35.335Z,28.20
2023-02-17T05:14:04.286Z,28.30
2023-02-17T05:16:33.197Z,28.40
2023-02-17T05:19:02.096Z,28.40
2023-02-17T05:21:31.012Z,28.40
2023-02-17T05:23:59.973Z,28.40
2023-02-17T05:26:29.120Z,28.30
2023-02-17T05:28:58.184Z,28.30
2023-02-17T05:31:27.143Z,28.30
2023-02-17T05:33:56.826Z,28.30
2023-02-17T05:36:25.773Z,28.40
2023-02-17T05:38:54.797Z,28.50
2023-02-17T05:41:24.364Z,28.60
2023-02-17T05:43:53.291Z,28.60
2023-02-17T05:46:24.026Z,28.60
2023-02-17T05:48:52.990Z,28.60
2023-02-17T05:51:21.955Z,28.50
2023-02-17T05:53:50.889Z,28.30
2023-02-17T05:56:19.812Z,28.20
2023-02-17T05:58:48.720Z,28.20
2023-02-17T06:01:17.817Z,28.20
2023-02-17T06:03:46.846Z,28.30
2023-02-17T06:06:15.812Z,28.40
2023-02-17T06:08:44.680Z,28.50
2023-02-17T06:11:13.623Z,28.50
2023-02-17T06:13:42.496Z,28.50
2023-02-17T06:16:11.607Z,28.60
2023-02-17T06:18:40.570Z,28.60
2023-02-17T06:21:09.495Z,28.70
2023-02-17T06:23:38.603Z,28.70
2023-02-17T06:26:07.831Z,28.60
2023-02-17T06:28:36.964Z,28.60
2023-02-17T06:31:06.168Z,28.50
2023-02-17T06:33:35.125Z,28.40
2023-02-17T06:36:04.245Z,28.40
2023-02-17T06:38:33.273Z,28.40
2023-02-17T06:41:02.213Z,28.50
2023-02-17T06:43:31.109Z,28.50
2023-02-17T06:46:00.255Z,28.70
2023-02-17T06:48:29.462Z,28.90
2023-02-17T06:50:58.345Z,29.10
2023-02-17T06:53:27.802Z,29.30
2023-02-17T06:55:57.177Z,29.50
2023-02-17T06:58:26.087Z,29.50
2023-02-17T07:00:54.974Z,29.50
2023-02-17T07:03:23.909Z,29.40
2023-02-17T07:05:53.090Z,29.40
2023-02-17T07:08:21.981Z,29.20
2023-02-17T07:10:50.866Z,29.10
2023-02-17T07:13:19.747Z,28.90
2023-02-17T07:15:48.780Z,28.90
2023-02-17T07:18:17.671Z,28.90
2023-02-17T07:20:46.688Z,28.80
2023-02-17T07:23:15.566Z,28.90
2023-02-17T07:25:44.482Z,28.90
2023-02-17T07:28:13.474Z,29.00
2023-02-17T07:30:44.367Z,29.00
2023-02-17T07:33:14.732Z,29.00
2023-02-17T07:35:46.783Z,28.90
2023-02-17T07:38:16.041Z,28.70
2023-02-17T07:40:44.886Z,28.70
2023-02-17T07:43:13.785Z,28.60
2023-02-17T07:45:42.985Z,28.60
2023-02-17T07:48:12.250Z,28.50
2023-02-17T07:50:41.191Z,28.50
2023-02-17T07:53:10.076Z,28.40
2023-02-17T07:55:39.266Z,28.40
2023-02-17T07:58:08.176Z,28.30
2023-02-17T08:00:37.072Z,28.20
2023-02-17T08:03:06.003Z,28.20
2023-02-17T08:05:34.927Z,28.20
2023-02-17T08:08:21.961Z,28.10
2023-02-17T08:11:09.127Z,28.20
2023-02-17T08:13:38.250Z,28.20
2023-02-17T08:16:07.640Z,28.20
2023-02-17T08:18:36.921Z,28.20
2023-02-17T08:21:06.579Z,28.10
2023-02-17T08:23:36.398Z,28.00
2023-02-17T08:26:06.305Z,28.10
2023-02-17T08:28:35.401Z,28.10
2023-02-17T08:31:04.606Z,28.00
2023-02-17T08:33:33.598Z,27.90
2023-02-17T08:36:08.701Z,27.80
2023-02-17T08:38:37.689Z,27.70
2023-02-17T08:41:15.480Z,27.70
2023-02-17T08:43:45.227Z,27.70
2023-02-17T08:46:15.456Z,27.60
2023-02-17T08:48:45.363Z,27.60
2023-02-17T08:51:16.373Z,27.60
2023-02-17T08:53:46.986Z,27.60
2023-02-17T08:56:15.926Z,27.60
2023-02-17T08:58:45.028Z,27.60
2023-02-17T09:01:14.172Z,27.60
2023-02-17T09:03:43.249Z,27.70
2023-02-17T09:06:12.207Z,27.70
2023-02-17T09:08:42.131Z,27.70
2023-02-17T09:11:11.618Z,27.70
2023-02-17T09:13:40.548Z,27.70
2023-02-17T09:16:09.721Z,27.70
2023-02-17T09:18:46.402Z,27.70
2023-02-17T09:21:15.879Z,27.70
2023-02-17T09:23:45.327Z,27.70
2023-02-17T09:26:16.195Z,27.70
2023-02-17T09:28:47.102Z,27.70
2023-02-17T09:31:24.667Z,27.70
2023-02-17T09:33:58.828Z,27.70
2023-02-17T09:36:31.075Z,27.70
2023-02-17T09:39:01.609Z,27.70
2023-02-17T09:41:51.009Z,27.70
2023-02-17T09:44:24.297Z,27.60
2023-02-17T09:47:06.716Z,27.60
2023-02-17T09:49:52.702Z,27.60
2023-02-17T09:52:34.880Z,27.60
2023-02-17T09:55:12.718Z,27.60
2023-02-17T09:57:57.990Z,27.60
2023-02-17T10:00:41.594Z,27.50
2023-02-17T10:03:34.742Z,27.50
2023-02-17T10:06:22.206Z,27.50
2023-02-17T10:09:00.375Z,27.40
2023-02-17T10:11:36.366Z,27.50
2023-02-17T10:14:28.028Z,27.40
2023-02-17T10:17:19.201Z,27.40
2023-02-17T10:20:04.805Z,27.30
2023-02-17T10:22:34.762Z,27.30
2023-02-17T10:25:14.782Z,27.30
2023-02-17T10:28:20.626Z,27.30
2023-02-17T10:30:57.508Z,27.30
2023-02-17T10:34:01.710Z,27.30
2023-02-17T10:36:58.166Z,27.20
2023-02-17T10:39:27.019Z,27.20
2023-02-17T10:41:57.465Z,27.20
2023-02-17T10:44:27.339Z,27.20
2023-02-17T10:46:56.753Z,27.10
2023-02-17T10:49:28.688Z,27.10
2023-02-17T10:52:11.888Z,27.10
2023-02-17T10:54:48.080Z,27.10
2023-02-17T10:57:20.838Z,27.10
2023-02-17T10:59:52.759Z,27.00
2023-02-17T11:02:43.422Z,27.00
2023-02-17T11:05:27.985Z,26.90
2023-02-17T11:07:59.213Z,26.90
2023-02-17T11:10:37.787Z,26.90
2023-02-17T11:13:41.733Z,26.90
2023-02-17T11:16:43.139Z,26.80
2023-02-17T11:19:28.788Z,26.80
2023-02-17T11:22:00.459Z,26.80
2023-02-17T11:24:31.620Z,26.80
2023-02-17T11:27:03.986Z,26.80
2023-02-17T11:29:34.354Z,26.80
2023-02-17T11:32:08.308Z,26.70
2023-02-17T11:34:40.446Z,26.70
2023-02-17T11:37:15.348Z,26.70
2023-02-17T11:39:49.743Z,26.70
2023-02-17T11:42:28.480Z,26.60
2023-02-17T11:45:00.135Z,26.60
2023-02-17T11:48:14.709Z,26.60
2023-02-17T11:51:10.384Z,26.60
2023-02-17T11:53:39.277Z,26.60
2023-02-17T11:56:18.416Z,26.60
2023-02-17T11:58:59.523Z,26.50
2023-02-17T12:01:53.162Z,26.50
2023-02-17T12:04:39.742Z,26.50
2023-02-17T12:07:31.604Z,26.50
2023-02-17T12:10:04.095Z,26.50
2023-02-17T12:12:52.746Z,26.50
2023-02-17T12:15:36.207Z,26.50
2023-02-17T12:18:28.245Z,26.50
2023-02-17T12:21:09.299Z,26.50
2023-02-17T12:24:14.868Z,26.40
2023-02-17T12:27:36.209Z,26.40
2023-02-17T12:30:32.579Z,26.40
2023-02-17T12:33:10.011Z,26.40
2023-02-17T12:35:45.012Z,26.30
2023-02-17T12:38:18.510Z,26.30
2023-02-17T12:40:55.329Z,26.30
2023-02-17T12:43:39.284Z,26.30
2023-02-17T12:46:15.653Z,26.30
2023-02-17T12:49:06.523Z,26.20
2023-02-17T12:51:44.207Z,26.20
2023-02-17T12:54:44.727Z,26.20
2023-02-17T12:57:24.765Z,26.20
2023-02-17T12:59:55.562Z,26.20
2023-02-17T13:02:28.455Z,26.10
2023-02-17T13:05:03.068Z,26.10
2023-02-17T13:07:53.400Z,26.10
2023-02-17T13:10:32.095Z,26.10
2023-02-17T13:13:08.056Z,26.10
2023-02-17T13:15:40.773Z,26.10
2023-02-17T13:18:15.557Z,26.10
2023-02-17T13:21:03.157Z,26.00
2023-02-17T13:23:38.730Z,26.00
2023-02-17T13:26:25.167Z,26.00
2023-02-17T13:28:56.460Z,26.00
2023-02-17T13:31:28.197Z,26.00
2023-02-17T13:33:59.957Z,25.90
2023-02-17T13:36:34.677Z,26.00
2023-02-17T13:39:04.113Z,25.90
2023-02-17T13:41:50.206Z,25.90
2023-02-17T13:44:29.905Z,25.90
2023-02-17T13:47:20.999Z,25.90
2023-02-17T13:49:58.353Z,25.90
2023-02-17T13:52:32.498Z,25.80
2023-02-17T13:55:06.630Z,25.80
2023-02-17T13:57:37.851Z,25.80
2023-02-17T14:00:26.966Z,25.80
2023-02-17T14:03:06.154Z,25.70
2023-02-17T14:05:35.097Z,25.70
2023-02-17T14:08:30.520Z,25.70
2023-02-17T14:11:00.738Z,25.70
2023-02-17T14:13:30.672Z,25.60
2023-02-17T14:16:01.673Z,25.60
2023-02-17T14:18:30.570Z,25.60
2023-02-17T14:21:30.054Z,25.60
2023-02-17T14:24:01.007Z,25.60
2023-02-17T14:26:40.321Z,25.50
2023-02-17T14:29:12.263Z,25.50
2023-02-17T14:31:46.123Z,25.50
2023-02-17T14:34:31.177Z,25.50
2023-02-17T14:37:22.111Z,25.50
2023-02-17T14:39:51.341Z,25.50
2023-02-17T14:42:20.379Z,25.50
2023-02-17T14:44:49.417Z,25.40
2023-02-17T14:47:18.371Z,25.40
2023-02-17T14:49:47.259Z,25.40
2023-02-17T14:52:24.888Z,25.40
2023-02-17T14:54:54.177Z,25.40
2023-02-17T14:57:29.193Z,25.40
2023-02-17T14:59:58.877Z,25.40
2023-02-17T15:02:27.851Z,25.40
2023-02-17T15:04:56.919Z,25.40
2023-02-17T15:07:25.990Z,25.40
2023-02-17T15:09:54.977Z,25.30
2023-02-17T15:12:27.121Z,25.30
2023-02-17T15:14:57.236Z,25.30
2023-02-17T15:17:26.184Z,25.30
2023-02-17T15:19:55.175Z,25.30
2023-02-17T15:22:25.547Z,25.30
2023-02-17T15:24:54.513Z,25.30
2023-02-17T15:27:23.493Z,25.30
2023-02-17T15:29:52.379Z,25.30
2023-02-17T15:32:21.384Z,25.30
2023-02-17T15:34:50.422Z,25.20
2023-02-17T15:37:19.614Z,25.30
2023-02-17T15:39:48.564Z,25.30
2023-02-17T15:42:17.882Z,25.30
2023-02-17T15:44:50.345Z,25.30
2023-02-17T15:47:22.951Z,25.30
2023-02-17T15:49:51.866Z,25.30
2023-02-17T15:52:20.831Z,25.30
2023-02-17T15:54:52.197Z,25.30
2023-02-17T15:57:26.574Z,25.20
2023-02-17T15:59:56.308Z,25.20
2023-02-17T16:02:27.037Z,25.20
2023-02-17T16:04:55.953Z,25.20
2023-02-17T16:07:24.837Z,25.20
2023-02-17T16:09:53.834Z,25.10
2023-02-17T16:12:27.718Z,25.10
2023-02-17T16:14:58.288Z,25.10
2023-02-17T16:17:28.442Z,25.10
2023-02-17T16:19:57.449Z,25.10
2023-02-17T16:22:26.490Z,25.10
2023-02-17T16:24:55.401Z,25.00
2023-02-17T16:27:26.229Z,25.00
2023-02-17T16:29:55.403Z,25.00
2023-02-17T16:32:24.491Z,24.90
2023-02-17T16:34:53.544Z,24.90
2023-02-17T16:37:22.448Z,24.90
2023-02-17T16:39:51.421Z,24.90
2023-02-17T16:42:20.284Z,24.90
2023-02-17T16:44:50.013Z,24.90
2023-02-17T16:47:23.714Z,24.90
2023-02-17T16:49:53.111Z,24.90
2023-02-17T16:52:29.266Z,24.90
2023-02-17T16:54:58.178Z,24.90
2023-02-17T16:57:27.549Z,24.90
2023-02-17T16:59:57.426Z,24.90
2023-02-17T17:02:27.486Z,24.90
2023-02-17T17:04:56.503Z,24.80
2023-02-17T17:07:25.433Z,24.80
2023-02-17T17:10:15.157Z,24.80
2023-02-17T17:12:44.363Z,24.80
2023-02-17T17:15:13.764Z,24.80
2023-02-17T17:17:45.069Z,24.80
2023-02-17T17:20:21.786Z,24.80
2023-02-17T17:22:52.743Z,24.70
2023-02-17T17:25:21.826Z,24.70
2023-02-17T17:27:50.750Z,24.70
2023-02-17T17:30:23.301Z,24.70
2023-02-17T17:32:52.376Z,24.60
2023-02-17T17:35:22.143Z,24.60
2023-02-17T17:37:51.117Z,24.60
2023-02-17T17:40:26.822Z,24.60
2023-02-17T17:42:55.936Z,24.60
2023-02-17T17:45:25.892Z,24.50
2023-02-17T17:47:54.923Z,24.50
2023-02-17T17:50:26.082Z,24.50
2023-02-17T17:52:55.053Z,24.50
2023-02-17T17:55:24.021Z,24.40
2023-02-17T17:57:54.727Z,24.40
2023-02-17T18:00:23.804Z,24.40
2023-02-17T18:02:52.715Z,24.30
2023-02-17T18:05:21.705Z,24.30
2023-02-17T18:07:51.791Z,24.30
2023-02-17T18:10:20.964Z,24.20
2023-02-17T18:12:50.413Z,24.20
2023-02-17T18:15:19.738Z,24.20
2023-02-17T18:17:49.273Z,24.10
2023-02-17T18:20:18.534Z,24.00
2023-02-17T18:22:47.454Z,24.00
2023-02-17T18:25:16.380Z,23.90
2023-02-17T18:27:47.313Z,23.90
2023-02-17T18:30:19.836Z,23.90
2023-02-17T18:32:49.422Z,23.80
2023-02-17T18:35:19.204Z,23.70
2023-02-17T18:37:48.824Z,23.70
2023-02-17T18:40:19.636Z,23.60
2023-02-17T18:42:49.367Z,23.60
2023-02-17T18:45:18.978Z,23.50
2023-02-17T18:47:48.681Z,23.50
2023-02-17T18:50:17.963Z,23.40
2023-02-17T18:52:46.940Z,23.30
2023-02-17T18:55:16.476Z,23.30
2023-02-17T18:57:45.944Z,23.30
2023-02-17T19:00:17.744Z,23.30
2023-02-17T19:02:46.766Z,23.20
2023-02-17T19:05:16.005Z,23.20
2023-02-17T19:07:44.976Z,23.20
2023-02-17T19:10:14.263Z,23.20
2023-02-17T19:12:43.193Z,23.10
2023-02-17T19:15:12.230Z,23.10
2023-02-17T19:17:41.624Z,23.00
2023-02-17T19:20:11.126Z,23.00
2023-02-17T19:22:40.208Z,23.00
2023-02-17T19:25:09.722Z,22.90
2023-02-17T19:27:41.794Z,23.00
2023-02-17T19:30:12.489Z,22.90
2023-02-17T19:32:41.731Z,22.90
2023-02-17T19:35:11.746Z,22.90
2023-02-17T19:37:40.823Z,22.80
2023-02-17T19:40:10.231Z,22.80
2023-02-17T19:42:41.192Z,22.80
2023-02-17T19:45:10.348Z,22.80
2023-02-17T19:47:39.180Z,22.70
2023-02-17T19:50:08.767Z,22.70
2023-02-17T19:52:39.366Z,22.70
2023-02-17T19:55:09.470Z,22.60
2023-02-17T19:57:38.677Z,22.60
2023-02-17T20:00:09.040Z,22.60
2023-02-17T20:02:38.489Z,22.60
2023-02-17T20:05:07.692Z,22.50
2023-02-17T20:07:36.733Z,22.50
2023-02-17T20:10:10.116Z,22.50
2023-02-17T20:12:39.598Z,22.40
2023-02-17T20:15:09.193Z,22.50
2023-02-17T20:17:38.295Z,22.40
2023-02-17T20:20:08.806Z,22.40
2023-02-17T20:22:38.175Z,22.40
2023-02-17T20:25:08.075Z,22.40
2023-02-17T20:27:36.973Z,22.40
2023-02-17T20:30:06.345Z,22.30
2023-02-17T20:32:35.283Z,22.30
2023-02-17T20:35:04.257Z,22.30
2023-02-17T20:37:33.181Z,22.30
2023-02-17T20:40:04.445Z,22.30
2023-02-17T20:42:33.647Z,22.30
2023-02-17T20:45:02.867Z,22.30
2023-02-17T20:47:31.786Z,22.30
2023-02-17T20:50:00.697Z,22.20
2023-02-17T20:52:29.599Z,22.20
2023-02-17T20:54:58.460Z,22.20
2023-02-17T20:57:28.607Z,22.20
2023-02-17T20:59:57.513Z,22.10
2023-02-17T21:02:26.445Z,22.10
2023-02-17T21:04:55.422Z,22.10
2023-02-17T21:07:24.321Z,22.10
2023-02-17T21:09:53.386Z,22.10
2023-02-17T21:12:22.781Z,22.00
2023-02-17T21:14:51.709Z,22.00
2023-02-17T21:17:20.622Z,22.00
2023-02-17T21:19:49.578Z,22.00
2023-02-17T21:22:18.646Z,22.00
2023-02-17T21:24:47.657Z,21.90
2023-02-17T21:27:16.639Z,22.00
2023-02-17T21:29:45.556Z,21.90
2023-02-17T21:32:14.599Z,21.90
2023-02-17T21:34:43.468Z,21.90
2023-02-17T21:37:12.957Z,21.90
2023-02-17T21:39:41.857Z,21.90
2023-02-17T21:42:10.934Z,21.90
2023-02-17T21:44:54.893Z,21.90
2023-02-17T21:47:24.499Z,21.90
2023-02-17T21:49:55.589Z,21.90
2023-02-17T21:52:24.783Z,21.90
2023-02-17T21:54:53.673Z,21.90
2023-02-17T21:57:22.595Z,21.80
2023-02-17T21:59:51.567Z,21.80
2023-02-17T22:02:20.480Z,21.80
2023-02-17T22:04:49.452Z,21.80
2023-02-17T22:07:18.516Z,21.80
2023-02-17T22:09:47.516Z,21.80
2023-02-17T22:12:16.437Z,21.70
2023-02-17T22:14:45.400Z,21.70
2023-02-17T22:17:14.325Z,21.70
2023-02-17T22:19:43.197Z,21.70
2023-02-17T22:22:12.151Z,21.70
2023-02-17T22:24:41.012Z,21.70
2023-02-17T22:27:09.944Z,21.70
2023-02-17T22:29:38.861Z,21.70
2023-02-17T22:32:07.758Z,21.70
2023-02-17T22:34:36.662Z,21.70
2023-02-17T22:37:05.534Z,21.60
2023-02-17T22:39:34.655Z,21.60
2023-02-17T22:42:03.984Z,21.60
2023-02-17T22:44:33.585Z,21.60
2023-02-17T22:47:02.510Z,21.60
2023-02-17T22:49:31.372Z,21.60
2023-02-17T22:52:00.447Z,21.60
2023-02-17T22:54:29.669Z,21.60
2023-02-17T22:56:58.562Z,21.60
2023-02-17T22:59:27.515Z,21.60
2023-02-17T23:01:59.291Z,21.50
2023-02-17T23:04:28.534Z,21.50
2023-02-17T23:06:57.705Z,21.50
2023-02-17T23:09:26.582Z,21.50
2023-02-17T23:11:55.598Z,21.50
2023-02-17T23:14:30.666Z,21.50
2023-02-17T23:17:03.273Z,21.50
2023-02-17T23:19:33.422Z,21.40
2023-02-17T23:22:06.698Z,21.40
2023-02-17T23:24:35.997Z,21.40
2023-02-17T23:27:05.405Z,21.40
2023-02-17T23:29:34.771Z,21.40
2023-02-17T23:32:03.697Z,21.40
2023-02-17T23:34:32.755Z,21.30
2023-02-17T23:37:01.847Z,21.30
2023-02-17T23:39:30.789Z,21.20
2023-02-17T23:41:59.742Z,21.20
2023-02-17T23:44:28.630Z,21.20
2023-02-17T23:46:57.556Z,21.20
2023-02-17T23:49:26.471Z,21.20
2023-02-17T23:51:55.455Z,21.10
2023-02-17T23:54:26.207Z,21.20
2023-02-17T23:56:55.046Z,21.20
2023-02-17T23:59:23.983Z,21.20
